Data for 04/07/2018

Time Sea-Level Adjusted Pressure Absolute Pressure Temperature Relative Humidity Dew Point   
(mb) (inHg) (mb) (inHg) (C) (F) (%) (C) (F)
00:05 1015 29.97 845 24.95 -7.9 17.7 72 -12.1 10.2
00:10 1016 30 845 24.95 -8 17.7 72 -12.1 10.2
00:15 1015 29.97 845 24.95 -7.9 17.8 72 -12 10.4
00:20 1015 29.97 845 24.95 -7.9 17.7 73 -12 10.4
00:25 1015 29.97 844 24.92 -8 17.6 73 -12 10.4
00:30 1015 29.97 844 24.92 -8 17.7 73 -12 10.4
00:35 1015 29.97 844 24.92 -8 17.6 73 -12 10.4
00:40 1015 29.97 844 24.92 -8 17.6 73 -12 10.4
00:45 1015 29.97 844 24.92 -8 17.6 73 -12 10.4
00:50 1015 29.97 844 24.92 -8 17.7 74 -11.9 10.6
00:55 1015 29.97 844 24.92 -7.9 17.7 74 -11.8 10.7
01:00 1015 29.97 844 24.92 -8 17.7 74 -11.8 10.7
01:05 1015 29.97 844 24.92 -8.1 17.5 74 -11.8 10.7
01:10 1015 29.97 844 24.92 -8 17.5 74 -11.8 10.7
01:15 1015 29.97 844 24.92 -8 17.5 74 -11.8 10.7
01:20 1015 29.97 844 24.92 -8 17.6 75 -11.7 10.9
01:25 1015 29.97 844 24.92 -7.9 17.7 74 -11.8 10.8
01:30 1015 29.97 844 24.92 -8.1 17.5 75 -11.8 10.7
01:35 1015 29.97 844 24.92 -8.3 17 75 -11.9 10.6
01:40 1015 29.97 844 24.92 -8.3 17 76 -11.9 10.7
01:45 1015 29.97 844 24.92 -8.1 17.4 75 -11.8 10.8
01:50 1015 29.97 844 24.92 -7.9 17.8 75 -11.7 11
01:55 1014 29.94 844 24.92 -7.8 17.9 75 -11.6 11.1
02:00 1014 29.94 843 24.89 -7.8 17.9 75 -11.5 11.3
02:05 1014 29.94 844 24.92 -7.9 17.8 76 -11.4 11.4
02:10 1014 29.94 843 24.89 -8 17.6 76 -11.5 11.3
02:15 1014 29.94 843 24.89 -8.1 17.4 77 -11.4 11.4
02:20 1014 29.94 843 24.89 -8 17.6 77 -11.3 11.6
02:25 1014 29.94 843 24.89 -7.9 17.8 78 -11.2 11.9
02:30 1014 29.94 843 24.89 -7.7 18.1 77 -11.1 12
02:35 1014 29.94 843 24.89 -7.8 18 77 -11.2 11.9
02:40 1014 29.94 843 24.89 -8 17.6 78 -11.2 11.8
02:45 1014 29.94 843 24.89 -8.1 17.4 79 -11.2 11.8
02:50 1014 29.94 843 24.89 -8.1 17.4 79 -11.1 12.1
02:55 1014 29.94 843 24.89 -7.9 17.7 78 -11.1 12
03:00 1014 29.94 843 24.89 -7.7 18.2 77 -11 12.1
03:05 1014 29.94 843 24.89 -7.6 18.4 77 -11 12.2
03:10 1014 29.94 843 24.89 -7.8 17.9 78 -11 12.1
03:15 1014 29.94 843 24.89 -8 17.6 78 -11.1 11.9
03:20 1014 29.94 843 24.89 -8.1 17.3 79 -11.1 12
03:25 1014 29.94 843 24.89 -8.3 17 81 -11.1 12
03:30 1014 29.94 843 24.89 -8.4 16.9 82 -10.9 12.3
03:35 1014 29.94 843 24.89 -8.2 17.3 82 -10.7 12.8
03:40 1014 29.94 843 24.89 -7.9 17.8 81 -10.6 13
03:45 1014 29.94 843 24.89 -7.7 18.2 80 -10.6 12.9
03:50 1014 29.94 843 24.89 -7.7 18.1 80 -10.5 13.1
03:55 1014 29.94 843 24.89 -7.6 18.3 80 -10.5 13.2
04:00 1014 29.94 843 24.89 -7.6 18.4 78 -10.8 12.6
04:05 1014 29.94 843 24.89 -7.6 18.3 78 -10.8 12.5
04:10 1014 29.94 843 24.89 -7.9 17.8 79 -11 12.2
04:15 1014 29.94 843 24.89 -8.1 17.4 79 -11 12.1
04:20 1014 29.94 843 24.89 -8.2 17.3 80 -11 12.2
04:25 1014 29.94 843 24.89 -8 17.6 80 -10.9 12.4
04:30 1014 29.94 843 24.89 -8 17.7 80 -10.9 12.4
04:35 1014 29.94 843 24.89 -7.9 17.7 80 -10.8 12.5
04:40 1014 29.94 843 24.89 -7.9 17.7 80 -10.8 12.6
04:45 1013 29.91 843 24.89 -7.9 17.8 80 -10.8 12.5
04:50 1013 29.91 843 24.89 -7.9 17.9 80 -10.8 12.6
04:55 1013 29.91 842 24.86 -7.9 17.8 80 -10.7 12.7
05:00 1013 29.91 842 24.86 -7.8 17.9 80 -10.7 12.8
05:05 1013 29.91 842 24.86 -7.8 18.1 81 -10.5 13.1
05:10 1013 29.91 842 24.86 -7.6 18.3 81 -10.3 13.5
05:15 1013 29.91 842 24.86 -7.3 18.9 80 -10.2 13.7
05:20 1013 29.91 842 24.86 -7.2 19 80 -10 13.9
05:25 1013 29.91 842 24.86 -7.1 19.2 80 -9.9 14.1
05:30 1013 29.91 842 24.86 -7 19.4 81 -9.8 14.4
05:35 1013 29.91 842 24.86 -7.1 19.3 81 -9.8 14.4
05:40 1013 29.91 842 24.86 -7 19.4 79 -10 14
05:45 1013 29.91 842 24.86 -6.9 19.5 79 -9.9 14.1
05:50 1013 29.91 842 24.86 -6.9 19.7 80 -9.7 14.5
05:55 1013 29.91 842 24.86 -6.7 19.9 79 -9.8 14.4
06:00 1013 29.91 842 24.86 -6.6 20.2 80 -9.4 15
06:05 1013 29.91 842 24.86 -6.5 20.2 80 -9.4 15.1
06:10 1012 29.88 842 24.86 -6.6 20.1 83 -9.1 15.6
06:15 1012 29.88 842 24.86 -6.8 19.8 82 -9.4 15.1
06:20 1012 29.88 842 24.86 -6.9 19.7 82 -9.4 15.1
06:25 1012 29.88 842 24.86 -6.8 19.7 82 -9.4 15.1
06:30 1012 29.88 842 24.86 -6.8 19.7 82 -9.3 15.2
06:35 1013 29.91 842 24.86 -6.7 19.9 82 -9.3 15.3
06:40 1012 29.88 842 24.86 -6.7 19.9 82 -9.3 15.3
06:45 1012 29.88 842 24.86 -6.7 20 82 -9.3 15.3
06:50 1012 29.88 842 24.86 -6.6 20.1 81 -9.3 15.3
06:55 1012 29.88 842 24.86 -6.7 19.9 81 -9.4 15.1
07:00 1012 29.88 842 24.86 -6.7 19.9 82 -9.3 15.2
07:05 1012 29.88 841 24.83 -6.6 20.1 81 -9.3 15.2
07:10 1012 29.88 841 24.83 -6.7 20 81 -9.4 15.2
07:15 1012 29.88 841 24.83 -6.8 19.8 81 -9.5 14.8
07:20 1012 29.88 841 24.83 -6.8 19.8 80 -9.6 14.7
07:25 1012 29.88 841 24.83 -6.8 19.9 80 -9.7 14.6
07:30 1012 29.88 841 24.83 -6.7 19.9 80 -9.6 14.7
07:35 1012 29.88 841 24.83 -6.7 19.9 80 -9.5 14.8
07:40 1012 29.88 841 24.83 -6.7 20 81 -9.4 15
07:45 1012 29.88 841 24.83 -6.5 20.3 80 -9.4 15.1
07:50 1012 29.88 841 24.83 -6.4 20.4 80 -9.4 15.1
07:55 1012 29.88 841 24.83 -6.3 20.6 79 -9.4 15.1
08:00 1011 29.85 841 24.83 -6.3 20.7 79 -9.3 15.3
08:05 1011 29.85 840 24.81 -6.1 21 79 -9.1 15.6
08:10 1011 29.85 840 24.81 -6 21.1 79 -9.1 15.6
08:15 1011 29.85 840 24.81 -6 21.1 79 -9.1 15.7
08:20 1011 29.85 840 24.81 -6 21.3 79 -9.1 15.7
08:25 1011 29.85 840 24.81 -5.9 21.4 78 -9.1 15.7
08:30 1011 29.85 840 24.81 -5.5 22.1 77 -8.8 16.1
08:35 1011 29.85 840 24.81 -5.1 22.8 76 -8.8 16.1
08:40 1011 29.85 840 24.81 -4.9 23.1 75 -8.7 16.3
08:45 1011 29.85 840 24.81 -4.7 23.5 74 -8.7 16.3
08:50 1011 29.85 840 24.81 -4.5 23.8 73 -8.7 16.4
08:55 1011 29.85 840 24.81 -4.5 23.9 74 -8.4 16.8
09:00 1011 29.85 840 24.81 -4.5 23.9 72 -8.7 16.3
09:05 1011 29.85 840 24.81 -4.2 24.5 71 -8.6 16.5
09:10 1011 29.85 840 24.81 -4.3 24.3 72 -8.6 16.5
09:15 1011 29.85 840 24.81 -4.3 24.2 73 -8.6 16.6
09:20 1011 29.85 840 24.81 -3.8 25.2 70 -8.4 16.9
09:25 1010 29.83 839 24.78 -3.5 25.6 70 -8.3 17.1
09:30 1010 29.83 839 24.78 -3.4 25.8 68 -8.5 16.8
09:35 1010 29.83 839 24.78 -3.2 26.2 68 -8.4 16.9
09:40 1010 29.83 839 24.78 -3 26.5 67 -8.4 17
09:45 1010 29.83 839 24.78 -3 26.6 67 -8.3 17
09:50 1010 29.83 839 24.78 -2.6 27.4 66 -8.1 17.4
09:55 1010 29.83 839 24.78 -2.2 28.1 64 -8.1 17.4
10:00 1010 29.83 839 24.78 -1.9 28.6 64 -7.9 17.8
10:05 1010 29.83 839 24.78 -1.7 28.9 63 -7.8 18
10:10 1010 29.83 839 24.78 -1.7 28.9 63 -7.9 17.8
10:15 1010 29.83 839 24.78 -1.8 28.7 64 -7.8 17.9
10:20 1010 29.83 839 24.78 -1.5 29.3 62 -7.8 17.9
10:25 1010 29.83 839 24.78 -1.3 29.7 62 -7.7 18.2
10:30 1010 29.83 839 24.78 -1 30.1 61 -7.7 18.1
10:35 1010 29.83 839 24.78 -1 30.2 61 -7.6 18.3
10:40 1010 29.83 839 24.78 -1 30.2 61 -7.5 18.5
10:45 1010 29.83 839 24.78 -0.9 30.3 62 -7.4 18.8
10:50 1009 29.8 839 24.78 -1 30.1 63 -7.2 19
10:55 1009 29.8 838 24.75 -0.8 30.5 61 -7.4 18.6
11:00 1009 29.8 838 24.75 -0.4 31.2 60 -7.3 18.9
11:05 1009 29.8 838 24.75 -0.4 31.3 61 -6.9 19.5
11:10 1009 29.8 838 24.75 -0.5 31 62 -7 19.4
11:15 1009 29.8 838 24.75 -0.7 30.7 63 -7 19.4
11:20 1009 29.8 838 24.75 -0.5 31.1 61 -7.2 19.1
11:25 1009 29.8 838 24.75 -0.5 31.2 61 -7 19.4
11:30 1009 29.8 838 24.75 -0.1 31.7 61 -6.9 19.7
11:35 1009 29.8 838 24.75 -0.1 31.7 61 -6.9 19.6
11:40 1009 29.8 838 24.75 -0.6 31 63 -6.8 19.7
11:45 1009 29.8 838 24.75 -0.1 31.7 60 -6.9 19.5
11:50 1008 29.77 838 24.75 0.1 32.1 61 -6.6 20.1
11:55 1008 29.77 837 24.72 -0.7 30.7 63 -6.9 19.5
12:00 1008 29.77 837 24.72 -0.6 30.9 64 -6.7 19.9
12:05 1008 29.77 837 24.72 -0.5 31.1 62 -6.8 19.7
12:10 1007 29.74 837 24.72 -0.3 31.4 62 -6.8 19.8
12:15 1007 29.74 836 24.69 -0.6 31 64 -6.5 20.3
12:20 1007 29.74 836 24.69 -0.8 30.5 64 -6.8 19.8
12:25 1007 29.74 836 24.69 -0.5 31 63 -6.8 19.8
12:30 1007 29.74 836 24.69 -0.3 31.5 63 -6.4 20.5
12:35 1006 29.71 836 24.69 -0.4 31.2 63 -6.5 20.2
12:40 1007 29.74 836 24.69 0.1 32.2 62 -6.4 20.5
12:45 1007 29.74 836 24.69 0.9 33.6 59 -6.2 20.8
12:50 1006 29.71 836 24.69 1.3 34.4 58 -6 21.1
12:55 1007 29.74 836 24.69 1.5 34.7 58 -5.8 21.5
13:00 1007 29.74 836 24.69 1.4 34.4 59 -5.9 21.4
13:05 1007 29.74 836 24.69 1.4 34.5 59 -5.7 21.7
13:10 1007 29.74 836 24.69 1.1 34 61 -5.7 21.8
13:15 1006 29.71 836 24.69 0.5 33 63 -5.7 21.7
13:20 1006 29.71 835 24.66 0.5 32.9 62 -6 21.1
13:25 1006 29.71 835 24.66 0.8 33.4 62 -5.7 21.8
13:30 1006 29.71 835 24.66 0.5 32.9 62 -5.9 21.4
13:35 1006 29.71 835 24.66 0.5 32.9 61 -6.2 20.8
13:40 1005 29.68 834 24.63 1.6 34.9 57 -6.1 21
13:45 1005 29.68 834 24.63 2.1 35.8 56 -5.7 21.7
13:50 1005 29.68 834 24.63 2.7 36.8 55 -5.5 22.2
13:55 1005 29.68 834 24.63 3.7 38.7 51 -5.5 22.2
14:00 1005 29.68 834 24.63 3.1 37.5 55 -5.1 22.8
14:05 1004 29.65 834 24.63 3.4 38.2 53 -5.2 22.6
14:10 1004 29.65 833 24.6 4.9 40.8 48 -5.2 22.7
14:15 1004 29.65 833 24.6 5.3 41.5 49 -4.5 23.8
14:20 1004 29.65 833 24.6 5 41 52 -4 24.8
14:25 1004 29.65 833 24.6 4.9 40.8 51 -4.3 24.2
14:30 1003 29.62 833 24.6 5 41.1 51 -4.3 24.3
14:35 1003 29.62 832 24.57 6 42.9 48 -4 24.7
14:40 1003 29.62 832 24.57 7.8 46.1 44 -3.7 25.3
14:45 1003 29.62 832 24.57 8.9 48 42 -3.2 26.2
14:50 1003 29.62 832 24.57 9.2 48.6 44 -2.4 27.7
14:55 1003 29.62 832 24.57 8.6 47.4 44 -3 26.6
15:00 1003 29.62 832 24.57 9 48.3 42 -3.2 26.3
15:05 1003 29.62 832 24.57 8.7 47.7 43 -3.2 26.3
15:10 1002 29.59 832 24.57 9.5 49.1 40 -3.4 25.9
15:15 1002 29.59 831 24.54 10 50.1 40 -3 26.6
15:20 1002 29.59 831 24.54 9.8 49.6 42 -2.5 27.5
15:25 1002 29.59 831 24.54 10.2 50.3 42 -2.2 28
15:30 1002 29.59 831 24.54 10.5 50.9 41 -2.2 28
15:35 1002 29.59 831 24.54 10.2 50.4 44 -1.6 29.2
15:40 1002 29.59 831 24.54 8.9 48.1 47 -1.7 29
15:45 1002 29.59 831 24.54 8.2 46.7 48 -2.2 28
15:50 1002 29.59 831 24.54 7.9 46.2 48 -2.3 27.8
15:55 1002 29.59 831 24.54 7.6 45.7 49 -2.4 27.7
16:00 1002 29.59 831 24.54 8 46.5 48 -2.3 27.8
16:05 1002 29.59 831 24.54 8.3 47 46 -2.5 27.5
16:10 1002 29.59 831 24.54 8.4 47.1 48 -1.9 28.5
16:15 1002 29.59 831 24.54 8.4 47.1 48 -1.9 28.6
16:20 1002 29.59 831 24.54 8.8 47.9 46 -2.1 28.2
16:25 1002 29.59 831 24.54 8.9 48.1 48 -1.5 29.3
16:30 1002 29.59 831 24.54 8.2 46.8 49 -1.7 28.9
16:35 1001 29.56 831 24.54 8.2 46.8 50 -1.5 29.3
16:40 1001 29.56 831 24.54 7.1 44.7 56 -1.1 30.1
16:45 1001 29.56 831 24.54 6.7 44 56 -1.4 29.5
16:50 1001 29.56 830 24.51 6.5 43.6 56 -1.7 28.9
16:55 1001 29.56 830 24.51 7 44.6 54 -1.7 29
17:00 1001 29.56 830 24.51 7.5 45.4 53 -1.5 29.3
17:05 1001 29.56 830 24.51 7.7 45.9 54 -1.1 30
17:10 1001 29.56 830 24.51 8.2 46.8 51 -1.4 29.6
17:15 1001 29.56 830 24.51 8.3 47 52 -1 30.3
17:20 1001 29.56 830 24.51 8.4 47 51 -1.3 29.7
17:25 1001 29.56 830 24.51 8.1 46.6 52 -1.1 29.9
17:30 1001 29.56 830 24.51 7.9 46.2 53 -1 30.1
17:35 1001 29.56 830 24.51 7.2 45 56 -0.9 30.4
17:40 1001 29.56 830 24.51 7.2 45 55 -1.1 30
17:45 1001 29.56 830 24.51 7 44.6 55 -1.5 29.3
17:50 1000 29.53 830 24.51 6.6 43.9 55 -1.7 29
17:55 1000 29.53 829 24.48 6.4 43.5 56 -1.8 28.8
18:00 1000 29.53 829 24.48 6.5 43.7 55 -1.8 28.7
18:05 1000 29.53 829 24.48 6.3 43.4 56 -1.8 28.7
18:10 1000 29.53 829 24.48 6.1 43.1 57 -1.8 28.7
18:15 1000 29.53 829 24.48 5.8 42.5 57 -2 28.3
18:20 1000 29.53 829 24.48 5.6 42.1 59 -1.8 28.8
18:25 1000 29.53 829 24.48 5.7 42.2 59 -1.8 28.8
18:30 1001 29.56 830 24.51 5.5 42 62 -1.1 30
18:35 1002 29.59 831 24.54 5.2 41.3 69 -0.1 31.9
18:40 1002 29.59 832 24.57 4 39.3 77 0.4 32.6
18:45 1003 29.62 832 24.57 2.9 37.2 84 0.5 32.9
18:50 1004 29.65 833 24.6 2.1 35.8 87 0.2 32.3
18:55 1004 29.65 833 24.6 1.6 34.9 89 0 32
19:00 1005 29.68 834 24.63 1.2 34.2 89 -0.4 31.4
19:05 1005 29.68 834 24.63 0.7 33.3 91 -0.7 30.8
19:10 1005 29.68 835 24.66 0.5 32.9 91 -0.8 30.6
19:15 1006 29.71 835 24.66 0.3 32.6 92 -0.9 30.5
19:20 1006 29.71 835 24.66 0.2 32.4 92 -0.9 30.4
19:25 1006 29.71 835 24.66 0.2 32.4 93 -0.9 30.4
19:30 1007 29.74 836 24.69 0.2 32.3 93 -0.9 30.4
19:35 1007 29.74 836 24.69 0.2 32.3 93 -0.8 30.5
19:40 1007 29.74 836 24.69 0.1 32.1 93 -1 30.3
19:45 1007 29.74 836 24.69 -0 31.9 93 -1 30.1
19:50 1007 29.74 836 24.69 -0.1 31.9 93 -1 30.1
19:55 1007 29.74 836 24.69 -0.1 31.9 93 -1 30.2
20:00 1007 29.74 836 24.69 -0.1 31.9 93 -1 30.2
20:05 1007 29.74 836 24.69 -0 31.9 94 -1 30.3
20:10 1007 29.74 836 24.69 -0 32 94 -0.9 30.3
20:15 1007 29.74 836 24.69 -0 32 94 -0.9 30.3
20:20 1007 29.74 836 24.69 0 32 94 -0.9 30.4
20:25 1007 29.74 837 24.72 0 32.1 94 -0.8 30.5
20:30 1007 29.74 836 24.69 0.1 32.1 94 -0.8 30.5
20:35 1007 29.74 836 24.69 0.1 32.1 94 -0.8 30.5
20:40 1007 29.74 836 24.69 0.1 32.2 94 -0.8 30.6
20:45 1007 29.74 836 24.69 0.1 32.2 94 -0.8 30.6
20:50 1007 29.74 836 24.69 0.2 32.3 94 -0.7 30.7
20:55 1007 29.74 836 24.69 0.2 32.4 94 -0.7 30.8
21:00 1007 29.74 836 24.69 0.3 32.5 94 -0.6 31
21:05 1007 29.74 836 24.69 0.3 32.6 94 -0.6 31
21:10 1007 29.74 836 24.69 0.5 32.9 94 -0.4 31.2
21:15 1007 29.74 836 24.69 0.6 33 93 -0.4 31.3
21:20 1007 29.74 836 24.69 0.6 33.1 93 -0.3 31.4
21:25 1007 29.74 836 24.69 0.8 33.5 94 -0.1 31.8
21:30 1007 29.74 836 24.69 0.9 33.7 93 -0 32
21:35 1007 29.74 836 24.69 0.9 33.7 93 -0.1 31.8
21:40 1007 29.74 836 24.69 1.1 34 92 -0 32
21:45 1007 29.74 836 24.69 1.5 34.7 89 -0.1 31.7
21:50 1007 29.74 836 24.69 1.6 34.9 86 -0.4 31.3
21:55 1007 29.74 836 24.69 1.9 35.4 81 -1 30.2
22:00 1007 29.74 836 24.69 2.2 36 78 -1.2 29.8
22:05 1007 29.74 836 24.69 2.5 36.5 77 -1.2 29.9
22:10 1007 29.74 836 24.69 2.8 37 73 -1.5 29.3
22:15 1007 29.74 836 24.69 3 37.4 73 -1.3 29.7
22:20 1007 29.74 836 24.69 2.9 37.3 74 -1.3 29.7
22:25 1007 29.74 836 24.69 2.9 37.2 73 -1.4 29.4
22:30 1007 29.74 836 24.69 3 37.3 74 -1.3 29.7
22:35 1007 29.74 836 24.69 2.9 37.2 75 -1.1 30
22:40 1007 29.74 836 24.69 2.7 36.8 76 -1.1 30
22:45 1007 29.74 836 24.69 2.3 36.2 78 -1.1 30.1
22:50 1007 29.74 836 24.69 2.1 35.8 77 -1.5 29.3
22:55 1007 29.74 836 24.69 2.1 35.8 77 -1.5 29.3
23:00 1007 29.74 836 24.69 1.9 35.4 78 -1.6 29.2
23:05 1007 29.74 836 24.69 1.7 35 80 -1.4 29.4
23:10 1007 29.74 836 24.69 1.6 34.9 78 -1.7 28.9
23:15 1007 29.74 836 24.69 1.6 34.8 75 -2.4 27.7
23:20 1007 29.74 836 24.69 1.5 34.7 73 -2.9 26.9
23:25 1007 29.74 836 24.69 1.5 34.7 71 -3.2 26.3
23:30 1007 29.74 837 24.72 1.6 34.9 70 -3.4 25.9
23:35 1007 29.74 837 24.72 1.7 35 68 -3.5 25.7
23:40 1007 29.74 837 24.72 1.5 34.7 68 -3.7 25.3
23:45 1007 29.74 837 24.72 1.4 34.5 68 -3.8 25.1
23:50 1007 29.74 837 24.72 1.2 34.1 69 -4 24.8
23:55 1007 29.74 837 24.72 1.1 34 67 -4.4 24.1
24:00 1007 29.74 837 24.72 1.6 34.9 64 -4.4 24.1